createdAt,value
2022-12-20T00:01:59.397Z,95.10
2022-12-20T00:04:28.411Z,94.90
2022-12-20T00:06:57.143Z,95.00
2022-12-20T00:09:26.597Z,95.10
2022-12-20T00:11:55.797Z,95.20
2022-12-20T00:14:24.847Z,95.10
2022-12-20T00:16:53.695Z,94.90
2022-12-20T00:19:22.638Z,95.00
2022-12-20T00:21:51.511Z,95.00
2022-12-20T00:24:25.803Z,95.10
2022-12-20T00:26:55.326Z,95.20
2022-12-20T00:29:24.197Z,95.20
2022-12-20T00:31:53.479Z,95.20
2022-12-20T00:34:22.399Z,95.10
2022-12-20T00:36:51.237Z,95.20
2022-12-20T00:39:20.208Z,95.40
2022-12-20T00:41:49.702Z,95.90
2022-12-20T00:44:18.575Z,96.50
2022-12-20T00:46:47.694Z,96.10
2022-12-20T00:49:17.533Z,96.60
2022-12-20T00:51:46.346Z,96.90
2022-12-20T00:54:15.181Z,97.10
2022-12-20T00:56:43.875Z,96.80
2022-12-20T00:59:12.720Z,95.90
2022-12-20T01:01:46.941Z,96.70
2022-12-20T01:04:16.316Z,96.20
2022-12-20T01:06:47.977Z,96.40
2022-12-20T01:09:16.999Z,96.40
2022-12-20T01:11:45.790Z,96.30
2022-12-20T01:14:51.692Z,96.50
2022-12-20T01:17:20.585Z,96.20
2022-12-20T01:19:49.510Z,95.90
2022-12-20T01:22:51.317Z,96.20
2022-12-20T01:25:20.381Z,95.90
2022-12-20T01:27:49.328Z,95.70
2022-12-20T01:30:18.187Z,95.40
2022-12-20T01:32:46.984Z,95.30
2022-12-20T01:35:16.926Z,95.30
2022-12-20T01:37:45.751Z,95.40
2022-12-20T01:40:14.904Z,95.30
2022-12-20T01:42:43.840Z,95.20
2022-12-20T01:45:22.104Z,95.30
2022-12-20T01:47:51.508Z,95.10
2022-12-20T01:50:20.810Z,95.20
2022-12-20T01:52:49.855Z,94.90
2022-12-20T01:55:24.954Z,94.90
2022-12-20T01:57:58.018Z,94.90
2022-12-20T02:00:26.763Z,94.80
2022-12-20T02:03:00.046Z,94.70
2022-12-20T02:05:29.293Z,94.90
2022-12-20T02:07:59.217Z,94.90
2022-12-20T02:10:42.225Z,94.80
2022-12-20T02:17:28.013Z,94.50
2022-12-20T02:20:14.448Z,94.40
2022-12-20T02:24:00.564Z,94.60
2022-12-20T02:26:32.870Z,94.60
2022-12-20T02:29:19.101Z,94.70
2022-12-20T02:31:53.862Z,95.00
2022-12-20T02:42:10.772Z,95.00
2022-12-20T02:53:24.010Z,94.90
2022-12-20T02:55:58.708Z,94.90
2022-12-20T03:02:22.533Z,94.30
2022-12-20T03:04:52.303Z,94.20
2022-12-20T03:07:21.728Z,94.10
2022-12-20T03:09:50.616Z,93.50
2022-12-20T03:12:19.419Z,93.90
2022-12-20T03:14:51.691Z,93.40
2022-12-20T03:20:08.309Z,93.30
2022-12-20T03:22:58.155Z,93.40
2022-12-20T03:25:34.127Z,93.10
2022-12-20T03:28:03.249Z,93.10
2022-12-20T03:30:44.322Z,92.90
2022-12-20T03:33:13.339Z,93.10
2022-12-20T03:35:42.139Z,93.00
2022-12-20T03:38:11.309Z,92.50
2022-12-20T03:40:40.886Z,92.50
2022-12-20T03:43:09.888Z,92.40
2022-12-20T03:45:44.491Z,92.40
2022-12-20T03:48:13.778Z,92.20
2022-12-20T03:50:45.968Z,92.30
2022-12-20T03:53:14.872Z,92.20
2022-12-20T03:55:45.606Z,92.30
2022-12-20T03:58:14.554Z,92.00
2022-12-20T04:00:46.750Z,92.00
2022-12-20T04:03:15.849Z,91.80
2022-12-20T04:05:44.844Z,91.90
2022-12-20T04:08:13.987Z,91.60
2022-12-20T04:11:02.612Z,91.90
2022-12-20T04:13:31.366Z,91.60
2022-12-20T04:16:01.274Z,91.40
2022-12-20T04:18:30.406Z,91.30
2022-12-20T04:21:02.210Z,91.60
2022-12-20T04:23:31.245Z,90.80
2022-12-20T04:26:00.004Z,90.80
2022-12-20T04:28:29.248Z,90.70
2022-12-20T04:30:59.140Z,90.80
2022-12-20T04:33:29.144Z,91.50
2022-12-20T04:35:58.383Z,90.90
2022-12-20T04:38:27.350Z,91.50
2022-12-20T04:40:57.284Z,90.60
2022-12-20T04:43:27.518Z,90.60
2022-12-20T04:45:59.620Z,90.40
2022-12-20T04:48:55.614Z,90.30
2022-12-20T04:51:19.126Z,90.40
2022-12-20T04:53:49.184Z,90.50
2022-12-20T04:56:24.233Z,90.70
2022-12-20T04:58:57.953Z,90.90
2022-12-20T05:01:30.035Z,91.10
2022-12-20T05:03:59.107Z,90.90
2022-12-20T05:06:28.837Z,91.10
2022-12-20T05:08:57.762Z,91.10
2022-12-20T05:11:26.790Z,90.90
2022-12-20T05:13:55.706Z,90.90
2022-12-20T05:16:24.792Z,89.50
2022-12-20T05:18:54.879Z,88.60
2022-12-20T05:21:43.324Z,89.20
2022-12-20T05:24:31.896Z,90.20
2022-12-20T05:27:00.849Z,88.70
2022-12-20T05:29:29.658Z,88.10
2022-12-20T05:31:58.541Z,90.00
2022-12-20T05:34:27.498Z,88.00
2022-12-20T05:36:56.343Z,89.20
2022-12-20T05:39:25.227Z,89.30
2022-12-20T05:41:54.712Z,88.70
2022-12-20T05:44:23.622Z,88.60
2022-12-20T05:46:55.017Z,87.30
2022-12-20T05:49:23.981Z,88.30
2022-12-20T05:51:55.613Z,88.00
2022-12-20T05:54:26.518Z,87.90
2022-12-20T05:56:55.424Z,86.60
2022-12-20T05:59:24.270Z,86.80
2022-12-20T06:01:53.305Z,86.90
2022-12-20T06:04:22.382Z,87.50
2022-12-20T06:06:51.283Z,86.10
2022-12-20T06:09:20.327Z,88.50
2022-12-20T06:11:49.204Z,87.50
2022-12-20T06:14:18.104Z,88.20
2022-12-20T06:16:47.145Z,88.90
2022-12-20T06:19:21.226Z,87.90
2022-12-20T06:21:50.744Z,86.60
2022-12-20T06:24:19.885Z,88.60
2022-12-20T06:26:49.081Z,89.10
2022-12-20T06:29:19.118Z,88.00
2022-12-20T06:31:48.991Z,85.70
2022-12-20T06:34:20.592Z,85.60
2022-12-20T06:36:49.811Z,85.10
2022-12-20T06:39:18.809Z,85.10
2022-12-20T06:41:47.635Z,84.20
2022-12-20T06:44:16.552Z,83.90
2022-12-20T06:46:45.332Z,83.90
2022-12-20T06:49:16.540Z,83.50
2022-12-20T06:51:45.445Z,84.60
2022-12-20T06:54:14.276Z,86.30
2022-12-20T06:56:43.239Z,86.00
2022-12-20T06:59:12.163Z,85.80
2022-12-20T07:01:41.154Z,85.90
2022-12-20T07:04:10.134Z,83.80
2022-12-20T07:06:39.662Z,83.70
2022-12-20T07:09:08.536Z,82.50
2022-12-20T07:11:38.845Z,83.00
2022-12-20T07:14:07.912Z,83.40
2022-12-20T07:16:37.988Z,83.00
2022-12-20T07:19:06.879Z,83.10
2022-12-20T07:21:35.782Z,82.80
2022-12-20T07:24:04.706Z,83.30
2022-12-20T07:26:33.846Z,83.30
2022-12-20T07:29:03.079Z,83.20
2022-12-20T07:31:32.051Z,82.80
2022-12-20T07:34:01.397Z,83.20
2022-12-20T07:36:30.386Z,82.60
2022-12-20T07:38:59.947Z,83.00
2022-12-20T07:41:28.871Z,82.50
2022-12-20T07:43:59.649Z,84.00
2022-12-20T07:46:29.104Z,83.80
2022-12-20T07:48:58.314Z,84.70
2022-12-20T07:51:37.848Z,84.00
2022-12-20T07:54:13.768Z,83.20
2022-12-20T07:56:47.096Z,84.50
2022-12-20T07:59:19.219Z,84.20
2022-12-20T08:01:49.424Z,85.70
2022-12-20T08:04:24.927Z,82.60
2022-12-20T08:07:04.849Z,84.20
2022-12-20T08:09:49.029Z,82.70
2022-12-20T08:12:20.497Z,82.20
2022-12-20T08:14:49.547Z,82.10
2022-12-20T08:17:18.322Z,83.30
2022-12-20T08:19:47.219Z,82.80
2022-12-20T08:22:16.340Z,82.20
2022-12-20T08:24:45.168Z,82.10
2022-12-20T08:27:14.102Z,81.90
2022-12-20T08:29:43.247Z,81.40
2022-12-20T08:32:14.267Z,82.80
2022-12-20T08:34:43.406Z,81.40
2022-12-20T08:37:15.057Z,82.80
2022-12-20T08:39:44.464Z,83.80
2022-12-20T08:42:13.866Z,84.00
2022-12-20T08:44:42.773Z,83.30
2022-12-20T08:47:12.698Z,84.60
2022-12-20T08:49:47.399Z,84.80
2022-12-20T08:52:17.034Z,84.80
2022-12-20T08:54:45.902Z,85.60
2022-12-20T08:57:15.054Z,84.90
2022-12-20T08:59:44.076Z,85.10
2022-12-20T09:02:14.074Z,83.90
2022-12-20T09:04:43.336Z,84.00
2022-12-20T09:07:12.198Z,85.90
2022-12-20T09:09:41.110Z,86.40
2022-12-20T09:12:09.973Z,85.40
2022-12-20T09:14:39.735Z,86.00
2022-12-20T09:17:11.019Z,85.60
2022-12-20T09:19:39.920Z,85.20
2022-12-20T09:22:09.880Z,85.30
2022-12-20T09:24:42.351Z,84.20
2022-12-20T09:27:11.528Z,83.70
2022-12-20T09:29:40.538Z,85.40
2022-12-20T09:32:09.940Z,85.20
2022-12-20T09:34:38.789Z,84.70
2022-12-20T09:37:07.998Z,85.40
2022-12-20T09:39:37.014Z,85.90
2022-12-20T09:42:10.564Z,84.30
2022-12-20T09:44:42.863Z,84.30
2022-12-20T09:47:21.810Z,84.70
2022-12-20T09:49:54.626Z,85.20
2022-12-20T09:52:27.981Z,84.40
2022-12-20T09:55:02.161Z,84.80
2022-12-20T09:57:48.492Z,84.20
2022-12-20T10:00:20.449Z,84.40
2022-12-20T10:03:06.475Z,85.60
2022-12-20T10:05:56.637Z,85.80
2022-12-20T10:08:32.420Z,86.00
2022-12-20T10:11:26.083Z,86.50
2022-12-20T10:13:57.092Z,85.40
2022-12-20T10:16:27.945Z,85.60
2022-12-20T10:19:06.456Z,85.10
2022-12-20T10:21:55.374Z,85.80
2022-12-20T10:24:42.570Z,85.90
2022-12-20T10:27:19.005Z,86.30
2022-12-20T10:29:50.341Z,86.00
2022-12-20T10:32:22.328Z,85.90
2022-12-20T10:35:07.076Z,86.50
2022-12-20T10:37:35.874Z,86.30
2022-12-20T10:40:07.566Z,86.90
2022-12-20T10:42:42.079Z,86.50
2022-12-20T10:45:19.321Z,87.00
2022-12-20T10:47:49.741Z,87.80
2022-12-20T10:50:24.384Z,88.30
2022-12-20T10:53:13.330Z,88.40
2022-12-20T10:55:44.373Z,88.70
2022-12-20T10:58:19.495Z,89.00
2022-12-20T11:00:50.759Z,88.60
2022-12-20T11:03:23.173Z,88.90
2022-12-20T11:06:04.526Z,89.10
2022-12-20T11:08:44.447Z,88.90
2022-12-20T11:11:23.064Z,89.20
2022-12-20T11:13:52.867Z,89.00
2022-12-20T11:16:41.794Z,89.00
2022-12-20T11:19:30.907Z,89.40
2022-12-20T11:22:20.130Z,89.30
2022-12-20T11:25:03.764Z,89.70
2022-12-20T11:27:52.131Z,90.00
2022-12-20T11:30:25.568Z,90.10
2022-12-20T11:33:14.457Z,90.10
2022-12-20T11:36:05.670Z,90.30
2022-12-20T11:38:39.913Z,90.20
2022-12-20T11:41:15.110Z,90.10
2022-12-20T11:47:11.204Z,90.10
2022-12-20T11:49:48.459Z,90.00
2022-12-20T11:52:37.635Z,90.00
2022-12-20T11:55:28.351Z,90.10
2022-12-20T11:58:27.615Z,90.10
2022-12-20T12:01:03.256Z,90.00
2022-12-20T12:03:35.739Z,90.40
2022-12-20T12:06:17.722Z,90.20
2022-12-20T12:09:09.786Z,90.10
2022-12-20T12:14:45.084Z,89.90
2022-12-20T12:17:30.784Z,90.00
2022-12-20T12:20:16.077Z,90.00
2022-12-20T12:22:46.772Z,90.30
2022-12-20T12:25:19.929Z,90.30
2022-12-20T12:27:48.745Z,90.50
2022-12-20T12:30:18.506Z,90.40
2022-12-20T12:33:00.650Z,90.30
2022-12-20T12:35:49.517Z,90.50
2022-12-20T12:38:29.481Z,90.50
2022-12-20T12:41:14.727Z,90.70
2022-12-20T12:43:55.772Z,90.80
2022-12-20T12:46:31.641Z,90.80
2022-12-20T12:49:02.509Z,90.60
2022-12-20T12:51:36.393Z,90.50
2022-12-20T12:54:18.887Z,90.50
2022-12-20T12:56:50.933Z,90.70
2022-12-20T12:59:39.835Z,90.70
2022-12-20T13:02:17.322Z,90.50
2022-12-20T13:05:10.658Z,90.40
2022-12-20T13:07:41.398Z,90.50
2022-12-20T13:10:11.992Z,90.60
2022-12-20T13:12:41.633Z,90.60
2022-12-20T13:15:26.772Z,90.60
2022-12-20T13:18:16.291Z,90.60
2022-12-20T13:21:05.105Z,90.60
2022-12-20T13:23:33.904Z,90.50
2022-12-20T13:26:22.278Z,90.70
2022-12-20T13:28:51.194Z,90.70
2022-12-20T13:31:21.022Z,90.90
2022-12-20T13:33:51.643Z,91.00
2022-12-20T13:36:38.926Z,91.00
2022-12-20T13:39:24.102Z,91.00
2022-12-20T13:42:16.008Z,90.70
2022-12-20T13:44:48.528Z,91.00
2022-12-20T13:47:32.877Z,90.90
2022-12-20T13:50:19.948Z,90.70
2022-12-20T13:52:49.663Z,91.00
2022-12-20T13:55:32.332Z,91.00
2022-12-20T13:58:09.184Z,90.90
2022-12-20T14:00:39.342Z,90.90
2022-12-20T14:03:24.898Z,90.80
2022-12-20T14:06:00.405Z,90.70
2022-12-20T14:08:34.356Z,90.70
2022-12-20T14:11:14.437Z,90.70
2022-12-20T14:13:43.939Z,90.70
2022-12-20T14:16:21.195Z,90.70
2022-12-20T14:18:52.963Z,90.70
2022-12-20T14:21:22.008Z,90.70
2022-12-20T14:23:53.691Z,90.70
2022-12-20T14:26:28.244Z,90.70
2022-12-20T14:29:00.483Z,90.70
2022-12-20T14:31:39.043Z,90.70
2022-12-20T14:34:26.013Z,90.80
2022-12-20T14:37:37.698Z,90.80
2022-12-20T14:40:19.809Z,90.90
2022-12-20T14:42:48.779Z,90.90
2022-12-20T14:45:21.211Z,91.00
2022-12-20T14:47:53.329Z,91.30
2022-12-20T14:50:28.090Z,91.30
2022-12-20T14:52:57.824Z,91.40
2022-12-20T14:55:33.961Z,91.30
2022-12-20T14:58:02.962Z,91.50
2022-12-20T15:00:33.388Z,91.50
2022-12-20T15:03:19.630Z,91.40
2022-12-20T15:05:52.158Z,91.50
2022-12-20T15:08:23.033Z,91.60
2022-12-20T15:10:52.918Z,91.60
2022-12-20T15:13:24.711Z,91.70
2022-12-20T15:15:53.524Z,91.80
2022-12-20T15:18:23.995Z,91.80
2022-12-20T15:21:01.515Z,92.00
2022-12-20T15:23:31.003Z,92.10
2022-12-20T15:26:00.450Z,92.10
2022-12-20T15:28:29.674Z,92.20
2022-12-20T15:30:58.557Z,92.30
2022-12-20T15:33:30.212Z,92.10
2022-12-20T15:35:59.073Z,92.20
2022-12-20T15:38:54.628Z,92.40
2022-12-20T15:41:23.973Z,92.50
2022-12-20T15:43:57.767Z,92.60
2022-12-20T15:46:27.082Z,92.50
2022-12-20T15:48:56.103Z,92.60
2022-12-20T15:51:41.653Z,92.60
2022-12-20T15:54:22.989Z,92.70
2022-12-20T15:56:52.619Z,92.80
2022-12-20T15:59:58.191Z,92.80
2022-12-20T16:02:28.834Z,92.80
2022-12-20T16:04:58.733Z,93.00
2022-12-20T16:07:29.005Z,92.70
2022-12-20T16:09:58.239Z,92.70
2022-12-20T16:12:31.280Z,92.70
2022-12-20T16:14:59.674Z,92.70
2022-12-20T16:17:28.481Z,92.30
2022-12-20T16:19:57.329Z,92.50
2022-12-20T16:22:27.331Z,92.70
2022-12-20T16:24:56.622Z,92.80
2022-12-20T16:27:25.496Z,92.60
2022-12-20T16:29:54.202Z,92.70
2022-12-20T16:32:23.691Z,92.70
2022-12-20T16:34:53.107Z,92.50
2022-12-20T16:37:22.093Z,92.60
2022-12-20T16:39:50.923Z,92.50
2022-12-20T16:42:23.314Z,92.60
2022-12-20T16:44:54.801Z,92.60
2022-12-20T16:47:24.028Z,92.60
2022-12-20T16:49:53.778Z,92.50
2022-12-20T16:52:23.872Z,92.60
2022-12-20T16:54:53.186Z,92.60
2022-12-20T16:57:22.382Z,92.50
2022-12-20T17:03:42.680Z,92.60
2022-12-20T17:06:13.504Z,92.50
2022-12-20T17:11:31.723Z,92.50
2022-12-20T17:14:01.995Z,92.50
2022-12-20T17:16:30.884Z,92.50
2022-12-20T17:19:01.355Z,92.50
2022-12-20T17:24:25.998Z,92.60
2022-12-20T17:26:54.755Z,92.60
2022-12-20T17:29:23.756Z,92.50
2022-12-20T17:31:53.044Z,92.50
2022-12-20T17:34:26.097Z,92.50
2022-12-20T17:36:55.631Z,92.50
2022-12-20T17:39:26.131Z,92.40
2022-12-20T17:41:56.185Z,92.50
2022-12-20T17:44:27.902Z,92.50
2022-12-20T17:46:58.332Z,92.70
2022-12-20T17:49:27.227Z,92.60
2022-12-20T17:51:57.747Z,92.60
2022-12-20T17:54:33.564Z,92.60
2022-12-20T17:57:05.671Z,92.60
2022-12-20T17:59:34.551Z,92.60
2022-12-20T18:02:03.501Z,92.60
2022-12-20T18:04:32.612Z,92.60
2022-12-20T18:07:03.297Z,92.70
2022-12-20T18:09:32.095Z,92.70
2022-12-20T18:12:00.980Z,92.70
2022-12-20T18:14:30.000Z,92.70
2022-12-20T18:16:59.699Z,92.70
2022-12-20T18:19:28.555Z,92.70
2022-12-20T18:21:59.151Z,92.70
2022-12-20T18:24:28.603Z,92.80
2022-12-20T18:26:57.382Z,92.80
2022-12-20T18:29:26.217Z,92.80
2022-12-20T18:31:55.156Z,92.80
2022-12-20T18:34:24.395Z,92.80
2022-12-20T18:36:53.123Z,92.80
2022-12-20T18:39:21.892Z,92.80
2022-12-20T18:41:50.622Z,92.80
2022-12-20T18:44:19.297Z,92.90
2022-12-20T18:46:48.155Z,93.10
2022-12-20T18:49:16.929Z,93.00
2022-12-20T18:51:45.770Z,93.00
2022-12-20T18:54:15.929Z,93.10
2022-12-20T18:56:44.706Z,93.10
2022-12-20T18:59:13.488Z,93.20
2022-12-20T19:01:43.941Z,93.60
2022-12-20T19:04:14.323Z,94.10
2022-12-20T19:06:44.838Z,93.80
2022-12-20T19:09:15.083Z,93.70
2022-12-20T19:11:44.401Z,93.70
2022-12-20T19:14:13.956Z,93.60
2022-12-20T19:16:43.202Z,93.80
2022-12-20T19:19:12.091Z,93.60
2022-12-20T19:21:43.132Z,93.50
2022-12-20T19:24:12.729Z,93.50
2022-12-20T19:26:41.650Z,93.40
2022-12-20T19:29:10.760Z,93.60
2022-12-20T19:31:40.203Z,93.70
2022-12-20T19:34:12.845Z,93.50
2022-12-20T19:36:45.410Z,93.60
2022-12-20T19:39:17.502Z,93.70
2022-12-20T19:42:06.783Z,93.60
2022-12-20T19:44:35.584Z,93.50
2022-12-20T19:47:07.570Z,93.50
2022-12-20T19:49:37.024Z,93.70
2022-12-20T19:52:07.089Z,93.50
2022-12-20T19:54:36.445Z,93.50
2022-12-20T19:57:05.214Z,93.50
2022-12-20T19:59:34.140Z,93.40
2022-12-20T20:02:03.033Z,93.40
2022-12-20T20:04:31.897Z,93.60
2022-12-20T20:07:00.837Z,93.50
2022-12-20T20:09:29.750Z,93.50
2022-12-20T20:11:58.980Z,93.60
2022-12-20T20:14:27.848Z,93.50
2022-12-20T20:16:56.730Z,93.50
2022-12-20T20:19:25.565Z,93.50
2022-12-20T20:21:54.404Z,93.60
2022-12-20T20:24:23.267Z,93.70
2022-12-20T20:26:52.144Z,93.60
2022-12-20T20:29:21.472Z,93.60
2022-12-20T20:31:50.593Z,93.50
2022-12-20T20:34:19.371Z,93.60
2022-12-20T20:36:48.164Z,93.60
2022-12-20T20:39:16.942Z,93.50
2022-12-20T20:41:45.671Z,93.60
2022-12-20T20:44:14.577Z,93.60
2022-12-20T20:46:43.513Z,93.60
2022-12-20T20:49:12.352Z,93.70
2022-12-20T20:51:41.063Z,93.90
2022-12-20T20:54:09.871Z,93.80
2022-12-20T20:56:38.680Z,93.70
2022-12-20T20:59:11.932Z,93.70
2022-12-20T21:01:46.228Z,93.70
2022-12-20T21:04:15.157Z,93.70
2022-12-20T21:06:43.990Z,93.70
2022-12-20T21:09:12.801Z,93.70
2022-12-20T21:11:41.980Z,93.80
2022-12-20T21:14:12.130Z,93.80
2022-12-20T21:16:42.741Z,94.00
2022-12-20T21:19:12.495Z,93.90
2022-12-20T21:21:41.353Z,93.80
2022-12-20T21:24:10.212Z,93.80
2022-12-20T21:26:39.128Z,93.80
2022-12-20T21:29:07.983Z,94.00
2022-12-20T21:31:37.248Z,94.00
2022-12-20T21:34:06.229Z,94.10
2022-12-20T21:36:35.145Z,94.10
2022-12-20T21:39:04.851Z,94.00
2022-12-20T21:41:33.762Z,94.20
2022-12-20T21:44:02.792Z,94.20
2022-12-20T21:46:33.066Z,94.10
2022-12-20T21:49:02.033Z,94.20
2022-12-20T21:51:32.030Z,94.30
2022-12-20T21:54:02.368Z,94.30
2022-12-20T21:56:33.518Z,94.40
2022-12-20T21:59:07.478Z,94.50
2022-12-20T22:01:36.512Z,94.40
2022-12-20T22:04:07.777Z,94.30
2022-12-20T22:06:37.209Z,94.70
2022-12-20T22:09:08.483Z,94.40
2022-12-20T22:11:37.760Z,94.50
2022-12-20T22:14:06.638Z,94.70
2022-12-20T22:16:35.905Z,94.60
2022-12-20T22:19:05.174Z,94.60
2022-12-20T22:21:35.264Z,94.70
2022-12-20T22:24:04.715Z,94.70
2022-12-20T22:26:34.432Z,94.80
2022-12-20T22:29:06.318Z,94.80
2022-12-20T22:31:35.374Z,94.90
2022-12-20T22:34:04.230Z,95.00
2022-12-20T22:36:33.302Z,95.00
2022-12-20T22:39:02.235Z,95.10
2022-12-20T22:41:35.212Z,95.10
2022-12-20T22:44:04.234Z,95.10
2022-12-20T22:46:33.184Z,95.50
2022-12-20T22:49:02.752Z,95.10
2022-12-20T22:51:34.570Z,95.20
2022-12-20T22:54:03.897Z,95.20
2022-12-20T22:56:33.093Z,95.30
2022-12-20T22:59:02.368Z,95.50
2022-12-20T23:01:31.560Z,95.40
2022-12-20T23:04:03.645Z,95.60
2022-12-20T23:06:32.844Z,95.50
2022-12-20T23:09:02.059Z,95.60
2022-12-20T23:11:51.253Z,95.50
2022-12-20T23:14:42.243Z,95.50
2022-12-20T23:17:12.321Z,95.80
2022-12-20T23:20:01.135Z,95.60
2022-12-20T23:22:46.483Z,95.70
2022-12-20T23:25:20.098Z,95.70
2022-12-20T23:27:51.507Z,95.80
2022-12-20T23:30:24.939Z,95.80
2022-12-20T23:32:55.264Z,95.90
2022-12-20T23:35:26.151Z,96.00
2022-12-20T23:37:57.809Z,96.10
2022-12-20T23:40:26.924Z,95.90
2022-12-20T23:42:56.140Z,96.10
2022-12-20T23:45:25.304Z,96.20
2022-12-20T23:47:54.435Z,96.30
2022-12-20T23:50:23.687Z,96.20
2022-12-20T23:52:52.801Z,96.10
2022-12-20T23:55:21.897Z,96.20
2022-12-20T23:57:51.084Z,96.30
